Guernsey Island, United Kingdom
Current Conditions -  °F | °C
As of 9:50 PM on Sunday 25 Jan 2015 (Local Time) from EGJB Reporting Station
Broken Clouds Broken Clouds  
Wind Chill: 42°   Ceiling: 2000
Heat Index: 48°   Visibility: 6mi
Dew Point: 45°   Wind: 17mph
Humidity: 87%   Direction: 250°WSW
Pressure: 30.42"   Gusts: NA
Location:  49.43°N, 2.6°W
Report Text: EGJB 252050Z 25015KT 9999 BKN020 09/07 Q1030
Loading
Personal Weather Stations






























Interactive Weather Map New forecast layout! Learn more

10-Day Weather Forecast

Advertisements
Track Severe Weather on mobile